createdAt,value
2017-03-04T00:00:03.926Z,8.33
2017-03-04T00:00:44.530Z,8.37
2017-03-04T00:01:25.172Z,8.34
2017-03-04T00:02:05.758Z,8.28
2017-03-04T00:02:46.371Z,8.3
2017-03-04T00:03:26.955Z,8.28
2017-03-04T00:04:07.558Z,8.31
2017-03-04T00:04:48.192Z,8.33
2017-03-04T00:05:28.808Z,8.27
2017-03-04T00:06:09.397Z,8.31
2017-03-04T00:06:50.022Z,8.3
2017-03-04T00:07:30.836Z,8.3
2017-03-04T00:08:11.554Z,8.3
2017-03-04T00:08:52.169Z,8.28
2017-03-04T00:09:32.765Z,8.31
2017-03-04T00:10:13.381Z,8.28
2017-03-04T00:10:53.964Z,8.3
2017-03-04T00:11:34.572Z,8.38
2017-03-04T00:12:15.141Z,8.34
2017-03-04T00:12:55.754Z,8.42
2017-03-04T00:13:36.372Z,8.38
2017-03-04T00:14:16.980Z,8.31
2017-03-04T00:14:57.607Z,8.41
2017-03-04T00:15:38.223Z,8.37
2017-03-04T00:16:18.842Z,8.28
2017-03-04T00:16:59.446Z,8.41
2017-03-04T00:17:40.044Z,8.3
2017-03-04T00:18:20.642Z,8.33
2017-03-04T00:19:01.316Z,8.33
2017-03-04T00:19:41.965Z,8.37
2017-03-04T00:20:22.569Z,8.38
2017-03-04T00:21:03.168Z,8.38
2017-03-04T00:21:43.816Z,8.3
2017-03-04T00:22:24.393Z,8.28
2017-03-04T00:23:05.027Z,8.31
2017-03-04T00:23:45.614Z,8.3
2017-03-04T00:24:26.191Z,8.27
2017-03-04T00:25:06.775Z,8.24
2017-03-04T00:25:47.417Z,8.18
2017-03-04T00:26:28.017Z,8.27
2017-03-04T00:27:08.622Z,8.24
2017-03-04T00:27:49.275Z,8.24
2017-03-04T00:28:29.869Z,8.28
2017-03-04T00:29:17.096Z,8.3
2017-03-04T00:29:57.740Z,8.31
2017-03-04T00:30:38.341Z,8.31
2017-03-04T00:31:18.953Z,8.28
2017-03-04T00:31:59.558Z,8.19
2017-03-04T00:32:40.175Z,8.18
2017-03-04T00:33:20.736Z,8.26
2017-03-04T00:34:01.372Z,8.26
2017-03-04T00:34:41.972Z,8.23
2017-03-04T00:35:22.568Z,8.15
2017-03-04T00:36:03.184Z,8.24
2017-03-04T00:36:43.771Z,8.18
2017-03-04T00:37:24.374Z,8.19
2017-03-04T00:38:04.967Z,8.24
2017-03-04T00:38:45.600Z,8.23
2017-03-04T00:39:26.172Z,8.15
2017-03-04T00:40:06.794Z,8.19
2017-03-04T00:40:47.397Z,8.13
2017-03-04T00:41:27.998Z,8.19
2017-03-04T00:42:08.604Z,8.1
2017-03-04T00:42:49.190Z,8.12
2017-03-04T00:43:29.810Z,8.1
2017-03-04T00:44:10.462Z,8.15
2017-03-04T00:44:51.061Z,8.13
2017-03-04T00:45:31.645Z,8.15
2017-03-04T00:46:12.354Z,8.18
2017-03-04T00:46:52.874Z,8.16
2017-03-04T00:47:33.473Z,8.06
2017-03-04T00:48:14.112Z,8.03
2017-03-04T00:48:54.715Z,8.03
2017-03-04T00:49:35.318Z,8.05
2017-03-04T00:50:15.935Z,8.03
2017-03-04T00:51:11.371Z,8.16
2017-03-04T00:52:59.188Z,8.12
2017-03-04T00:53:39.762Z,8.1
2017-03-04T00:54:20.340Z,8.13
2017-03-04T00:55:00.931Z,8.15
2017-03-04T00:55:41.510Z,8.18
2017-03-04T00:56:22.116Z,8.12
2017-03-04T00:57:02.702Z,8.16
2017-03-04T00:57:43.311Z,8.15
2017-03-04T00:58:23.904Z,8.15
2017-03-04T00:59:04.524Z,8.13
2017-03-04T00:59:45.123Z,8.15
2017-03-04T01:00:25.712Z,8.13
2017-03-04T01:01:06.317Z,8.12
2017-03-04T01:01:46.921Z,8.18
2017-03-04T01:02:27.487Z,8.13
2017-03-04T01:03:08.080Z,8.12
2017-03-04T01:03:48.662Z,8.15
2017-03-04T01:04:29.263Z,8.06
2017-03-04T01:05:09.935Z,7.97
2017-03-04T01:05:50.516Z,7.97
2017-03-04T01:06:31.097Z,7.95
2017-03-04T01:07:11.736Z,7.98
2017-03-04T01:07:52.326Z,8.1
2017-03-04T01:08:32.947Z,8.03
2017-03-04T01:09:13.592Z,8.01
2017-03-04T01:09:54.204Z,8.06
2017-03-04T01:10:34.850Z,8.01
2017-03-04T01:11:15.416Z,8.08
2017-03-04T01:11:56.044Z,8.06
2017-03-04T01:12:36.696Z,8
2017-03-04T01:13:17.245Z,8.15
2017-03-04T01:13:57.939Z,8.15
2017-03-04T01:14:38.524Z,8.09
2017-03-04T01:15:19.136Z,8.08
2017-03-04T01:15:59.724Z,8.03
2017-03-04T01:16:40.360Z,8.12
2017-03-04T01:17:20.959Z,8.01
2017-03-04T01:18:01.548Z,8.05
2017-03-04T01:18:42.118Z,8.05
2017-03-04T01:19:22.739Z,8.05
2017-03-04T01:20:03.409Z,7.98
2017-03-04T01:20:44.034Z,8.01
2017-03-04T01:21:24.756Z,8.03
2017-03-04T01:22:05.427Z,8.1
2017-03-04T01:22:46.052Z,7.95
2017-03-04T01:23:26.669Z,8.05
2017-03-04T01:24:07.345Z,8.09
2017-03-04T01:24:47.938Z,8.01
2017-03-04T01:25:28.628Z,8.05
2017-03-04T01:26:09.219Z,7.98
2017-03-04T01:26:49.931Z,8
2017-03-04T01:27:30.506Z,8.01
2017-03-04T01:28:11.117Z,7.98
2017-03-04T01:28:51.748Z,8.09
2017-03-04T01:29:32.335Z,8.03
2017-03-04T01:30:12.952Z,8.05
2017-03-04T01:30:53.579Z,8.03
2017-03-04T01:31:34.191Z,8.03
2017-03-04T01:32:14.818Z,8.03
2017-03-04T01:32:55.437Z,8.01
2017-03-04T01:33:36.073Z,8.06
2017-03-04T01:34:16.709Z,8
2017-03-04T01:34:57.319Z,8.03
2017-03-04T01:35:37.902Z,7.91
2017-03-04T01:36:18.557Z,7.93
2017-03-04T01:36:59.169Z,7.88
2017-03-04T01:37:39.822Z,7.93
2017-03-04T01:38:20.411Z,7.98
2017-03-04T01:39:01.024Z,7.98
2017-03-04T01:39:41.645Z,7.95
2017-03-04T01:40:22.275Z,7.94
2017-03-04T01:41:02.896Z,7.93
2017-03-04T01:41:43.515Z,7.97
2017-03-04T01:42:24.159Z,8
2017-03-04T01:43:04.805Z,8
2017-03-04T01:43:45.383Z,7.91
2017-03-04T01:44:26.002Z,7.98
2017-03-04T01:45:06.636Z,7.85
2017-03-04T01:45:47.238Z,7.85
2017-03-04T01:46:27.870Z,7.95
2017-03-04T01:47:09.180Z,7.83
2017-03-04T01:47:49.850Z,7.9
2017-03-04T01:48:30.447Z,7.85
2017-03-04T01:49:11.104Z,7.88
2017-03-04T01:49:51.748Z,7.87
2017-03-04T01:50:32.362Z,7.85
2017-03-04T01:51:12.985Z,7.77
2017-03-04T01:51:53.635Z,7.9
2017-03-04T01:52:34.231Z,7.88
2017-03-04T01:53:14.881Z,7.87
2017-03-04T01:53:55.473Z,7.8
2017-03-04T01:54:36.087Z,7.9
2017-03-04T01:55:16.735Z,7.8
2017-03-04T01:55:57.353Z,7.77
2017-03-04T01:56:38.006Z,7.7
2017-03-04T01:57:18.624Z,7.73
2017-03-04T01:57:59.268Z,7.69
2017-03-04T01:58:39.863Z,7.72
2017-03-04T01:59:20.521Z,7.73
2017-03-04T02:00:01.144Z,7.7
2017-03-04T02:00:41.753Z,7.75
2017-03-04T02:01:22.431Z,7.8
2017-03-04T02:02:02.993Z,7.72
2017-03-04T02:02:43.598Z,7.77
2017-03-04T02:03:24.260Z,7.8
2017-03-04T02:04:04.926Z,7.72
2017-03-04T02:04:45.542Z,7.7
2017-03-04T02:05:26.172Z,7.75
2017-03-04T02:06:06.800Z,7.7
2017-03-04T02:06:47.471Z,7.73
2017-03-04T02:07:28.026Z,7.75
2017-03-04T02:08:08.663Z,7.7
2017-03-04T02:08:49.334Z,7.7
2017-03-04T02:09:29.888Z,7.75
2017-03-04T02:10:10.512Z,7.75
2017-03-04T02:10:51.134Z,7.75
2017-03-04T02:11:31.765Z,7.7
2017-03-04T02:12:12.374Z,7.7
2017-03-04T02:12:53.063Z,7.75
2017-03-04T02:13:33.677Z,7.75
2017-03-04T02:14:14.309Z,7.72
2017-03-04T02:14:54.919Z,7.75
2017-03-04T02:15:35.536Z,7.73
2017-03-04T02:16:16.156Z,7.72
2017-03-04T02:16:56.747Z,7.67
2017-03-04T02:17:37.369Z,7.66
2017-03-04T02:18:18.032Z,7.57
2017-03-04T02:18:58.648Z,7.6
2017-03-04T02:19:39.279Z,7.63
2017-03-04T02:20:19.903Z,7.63
2017-03-04T02:21:00.509Z,7.61
2017-03-04T02:21:41.105Z,7.66
2017-03-04T02:22:21.737Z,7.63
2017-03-04T02:23:02.379Z,7.66
2017-03-04T02:23:43.020Z,7.7
2017-03-04T02:24:23.608Z,7.73
2017-03-04T02:25:04.228Z,7.7
2017-03-04T02:25:44.848Z,7.82
2017-03-04T02:26:25.486Z,7.73
2017-03-04T02:27:06.119Z,7.76
2017-03-04T02:27:46.730Z,7.7
2017-03-04T02:28:27.400Z,7.72
2017-03-04T02:29:08.042Z,7.8
2017-03-04T02:29:48.669Z,7.72
2017-03-04T02:30:29.330Z,7.63
2017-03-04T02:31:09.892Z,7.69
2017-03-04T02:31:50.507Z,7.69
2017-03-04T02:32:31.143Z,7.69
2017-03-04T02:33:11.748Z,7.69
2017-03-04T02:33:52.404Z,7.69
2017-03-04T02:34:33.065Z,7.66
2017-03-04T02:35:13.676Z,7.72
2017-03-04T02:35:54.286Z,7.69
2017-03-04T02:36:34.877Z,7.69
2017-03-04T02:37:15.531Z,7.7
2017-03-04T02:37:56.098Z,7.63
2017-03-04T02:38:36.716Z,7.77
2017-03-04T02:39:17.345Z,7.69
2017-03-04T02:39:57.970Z,7.69
2017-03-04T02:40:38.575Z,7.67
2017-03-04T02:41:19.165Z,7.69
2017-03-04T02:42:00.050Z,7.72
2017-03-04T02:42:40.654Z,7.72
2017-03-04T02:43:21.307Z,7.72
2017-03-04T02:44:01.898Z,7.72
2017-03-04T02:44:42.525Z,7.63
2017-03-04T02:45:23.128Z,7.72
2017-03-04T02:46:03.736Z,7.72
2017-03-04T02:46:44.371Z,7.66
2017-03-04T02:47:24.999Z,7.67
2017-03-04T02:48:05.613Z,7.66
2017-03-04T02:48:46.228Z,7.6
2017-03-04T02:49:26.870Z,7.66
2017-03-04T02:50:07.431Z,7.63
2017-03-04T02:50:48.011Z,7.66
2017-03-04T02:51:28.646Z,7.63
2017-03-04T02:52:09.255Z,7.63
2017-03-04T02:52:49.854Z,7.56
2017-03-04T02:53:30.480Z,7.56
2017-03-04T02:54:11.058Z,7.63
2017-03-04T02:54:51.665Z,7.61
2017-03-04T02:55:32.274Z,7.66
2017-03-04T02:56:12.879Z,7.57
2017-03-04T02:56:53.476Z,7.6
2017-03-04T02:57:34.092Z,7.53
2017-03-04T02:58:14.663Z,7.5
2017-03-04T02:58:55.273Z,7.54
2017-03-04T02:59:35.880Z,7.48
2017-03-04T03:00:16.436Z,7.47
2017-03-04T03:00:57.053Z,7.53
2017-03-04T03:01:37.632Z,7.56
2017-03-04T03:02:18.281Z,7.53
2017-03-04T03:02:58.844Z,7.53
2017-03-04T03:03:39.432Z,7.47
2017-03-04T03:04:20.035Z,7.48
2017-03-04T03:05:00.643Z,7.56
2017-03-04T03:05:41.239Z,7.53
2017-03-04T03:06:21.806Z,7.5
2017-03-04T03:07:02.445Z,7.48
2017-03-04T03:07:43.059Z,7.4
2017-03-04T03:08:23.690Z,7.48
2017-03-04T03:09:04.341Z,7.4
2017-03-04T03:09:44.962Z,7.4
2017-03-04T03:10:25.578Z,7.47
2017-03-04T03:11:06.152Z,7.35
2017-03-04T03:11:46.755Z,7.4
2017-03-04T03:12:27.340Z,7.47
2017-03-04T03:13:07.905Z,7.38
2017-03-04T03:13:48.489Z,7.38
2017-03-04T03:14:29.100Z,7.43
2017-03-04T03:15:09.699Z,7.45
2017-03-04T03:15:50.284Z,7.35
2017-03-04T03:16:30.924Z,7.43
2017-03-04T03:17:11.494Z,7.43
2017-03-04T03:17:52.126Z,7.4
2017-03-04T03:18:32.700Z,7.42
2017-03-04T03:19:13.280Z,7.43
2017-03-04T03:19:53.908Z,7.45
2017-03-04T03:20:34.495Z,7.47
2017-03-04T03:21:15.127Z,7.39
2017-03-04T03:21:55.653Z,7.47
2017-03-04T03:22:36.242Z,7.43
2017-03-04T03:23:16.829Z,7.5
2017-03-04T03:23:57.428Z,7.42
2017-03-04T03:24:38.091Z,7.38
2017-03-04T03:25:18.725Z,7.36
2017-03-04T03:25:59.336Z,7.39
2017-03-04T03:26:39.931Z,7.43
2017-03-04T03:27:20.538Z,7.42
2017-03-04T03:28:01.131Z,7.36
2017-03-04T03:28:41.719Z,7.31
2017-03-04T03:29:22.333Z,7.47
2017-03-04T03:30:02.974Z,7.4
2017-03-04T03:30:43.563Z,7.31
2017-03-04T03:31:24.190Z,7.39
2017-03-04T03:32:04.765Z,7.35
2017-03-04T03:32:45.398Z,7.43
2017-03-04T03:33:25.976Z,7.43
2017-03-04T03:34:06.622Z,7.45
2017-03-04T03:34:47.160Z,7.36
2017-03-04T03:35:27.769Z,7.42
2017-03-04T03:36:08.378Z,7.38
2017-03-04T03:36:48.974Z,7.4
2017-03-04T03:37:29.551Z,7.42
2017-03-04T03:38:10.169Z,7.4
2017-03-04T03:38:50.791Z,7.38
2017-03-04T03:39:31.383Z,7.42
2017-03-04T03:40:11.968Z,7.31
2017-03-04T03:40:52.587Z,7.45
2017-03-04T03:41:33.151Z,7.32
2017-03-04T03:42:13.746Z,7.32
2017-03-04T03:42:54.361Z,7.33
2017-03-04T03:43:34.964Z,7.4
2017-03-04T03:44:15.572Z,7.43
2017-03-04T03:44:56.166Z,7.38
2017-03-04T03:45:36.761Z,7.45
2017-03-04T03:46:17.361Z,7.42
2017-03-04T03:46:57.966Z,7.45
2017-03-04T03:47:38.553Z,7.38
2017-03-04T03:48:19.154Z,7.4
2017-03-04T03:48:59.759Z,7.43
2017-03-04T03:49:40.354Z,7.45
2017-03-04T03:50:20.931Z,7.35
2017-03-04T03:51:01.548Z,7.45
2017-03-04T03:51:42.145Z,7.38
2017-03-04T03:52:22.762Z,7.45
2017-03-04T03:53:03.365Z,7.32
2017-03-04T03:53:43.978Z,7.4
2017-03-04T03:54:24.577Z,7.43
2017-03-04T03:55:05.226Z,7.35
2017-03-04T03:55:45.817Z,7.32
2017-03-04T03:56:26.426Z,7.33
2017-03-04T03:57:07.013Z,7.35
2017-03-04T03:57:47.600Z,7.39
2017-03-04T03:58:28.197Z,7.43
2017-03-04T03:59:08.831Z,7.42
2017-03-04T03:59:49.458Z,7.35
2017-03-04T04:00:30.011Z,7.32
2017-03-04T04:01:10.594Z,7.31
2017-03-04T04:01:51.185Z,7.28
2017-03-04T04:02:31.790Z,7.24
2017-03-04T04:03:12.382Z,7.32
2017-03-04T04:03:52.968Z,7.32
2017-03-04T04:04:33.583Z,7.2
2017-03-04T04:05:14.184Z,7.14
2017-03-04T04:05:54.757Z,7.23
2017-03-04T04:06:35.349Z,7.24
2017-03-04T04:07:15.948Z,7.17
2017-03-04T04:07:56.541Z,7.18
2017-03-04T04:08:37.115Z,7.21
2017-03-04T04:09:17.737Z,7.18
2017-03-04T04:09:58.339Z,7.24
2017-03-04T04:10:38.959Z,7.21
2017-03-04T04:11:19.571Z,7.21
2017-03-04T04:12:00.155Z,7.18
2017-03-04T04:12:40.788Z,7.21
2017-03-04T04:13:21.405Z,7.18
2017-03-04T04:14:02.022Z,7.24
2017-03-04T04:14:42.603Z,7.18
2017-03-04T04:15:23.232Z,7.32
2017-03-04T04:16:03.797Z,7.32
2017-03-04T04:16:44.386Z,7.21
2017-03-04T04:17:24.970Z,7.32
2017-03-04T04:18:05.557Z,7.2
2017-03-04T04:18:46.188Z,7.17
2017-03-04T04:19:26.777Z,7.24
2017-03-04T04:20:07.473Z,7.36
2017-03-04T04:20:48.044Z,7.28
2017-03-04T04:21:28.639Z,7.25
2017-03-04T04:22:09.235Z,7.24
2017-03-04T04:22:49.846Z,7.33
2017-03-04T04:23:30.469Z,7.25
2017-03-04T04:24:11.075Z,7.17
2017-03-04T04:24:51.652Z,7.32
2017-03-04T04:25:32.281Z,7.32
2017-03-04T04:26:12.892Z,7.25
2017-03-04T04:26:53.495Z,7.23
2017-03-04T04:27:34.072Z,7.32
2017-03-04T04:28:14.726Z,7.25
2017-03-04T04:28:55.320Z,7.28
2017-03-04T04:29:35.938Z,7.35
2017-03-04T04:30:16.540Z,7.25
2017-03-04T04:30:57.172Z,7.18
2017-03-04T04:31:37.779Z,7.24
2017-03-04T04:32:18.380Z,7.29
2017-03-04T04:32:58.971Z,7.31
2017-03-04T04:33:39.572Z,7.28
2017-03-04T04:34:20.171Z,7.29
2017-03-04T04:35:00.822Z,7.31
2017-03-04T04:35:41.427Z,7.36
2017-03-04T04:36:22.014Z,7.24
2017-03-04T04:37:02.687Z,7.2
2017-03-04T04:37:43.264Z,7.17
2017-03-04T04:38:23.871Z,7.18
2017-03-04T04:39:04.464Z,7.18
2017-03-04T04:39:45.085Z,7.18
2017-03-04T04:40:25.666Z,7.2
2017-03-04T04:41:06.265Z,7.15
2017-03-04T04:41:46.878Z,7.2
2017-03-04T04:42:27.484Z,7.15
2017-03-04T04:43:08.084Z,7.13
2017-03-04T04:43:48.682Z,7.18
2017-03-04T04:44:29.284Z,7.23
2017-03-04T04:45:09.885Z,7.23
2017-03-04T04:45:50.486Z,7.25
2017-03-04T04:46:31.116Z,7.15
2017-03-04T04:47:11.716Z,7.2
2017-03-04T04:47:52.317Z,7.17
2017-03-04T04:48:32.904Z,7.24
2017-03-04T04:49:13.501Z,7.15
2017-03-04T04:49:54.091Z,7.07
2017-03-04T04:50:34.673Z,7.15
2017-03-04T04:51:15.247Z,7.06
2017-03-04T04:51:55.870Z,7.06
2017-03-04T04:52:36.514Z,7.06
2017-03-04T04:53:17.116Z,7.05
2017-03-04T04:53:57.723Z,7.11
2017-03-04T04:54:38.309Z,7.02
2017-03-04T04:55:18.903Z,7
2017-03-04T04:55:59.563Z,7
2017-03-04T04:56:40.167Z,6.99
2017-03-04T04:57:20.753Z,7.05
2017-03-04T04:58:01.337Z,7.05
2017-03-04T04:58:41.924Z,7.05
2017-03-04T04:59:22.536Z,7.02
2017-03-04T05:00:03.135Z,7.03
2017-03-04T05:00:43.732Z,7.02
2017-03-04T05:01:24.308Z,7.03
2017-03-04T05:02:04.902Z,7.1
2017-03-04T05:02:45.550Z,7.06
2017-03-04T05:03:26.144Z,7.07
2017-03-04T05:04:06.750Z,7.11
2017-03-04T05:04:47.332Z,7.02
2017-03-04T05:05:27.955Z,6.93
2017-03-04T05:06:08.549Z,6.99
2017-03-04T05:06:49.123Z,6.96
2017-03-04T05:07:29.741Z,6.92
2017-03-04T05:08:10.348Z,7
2017-03-04T05:08:50.945Z,6.95
2017-03-04T05:09:31.580Z,6.96
2017-03-04T05:10:12.167Z,6.99
2017-03-04T05:10:52.792Z,7
2017-03-04T05:11:33.448Z,7.1
2017-03-04T05:12:14.066Z,7.03
2017-03-04T05:12:54.676Z,7.03
2017-03-04T05:13:35.274Z,7.07
2017-03-04T05:14:15.856Z,7.15
2017-03-04T05:14:56.429Z,7.15
2017-03-04T05:15:37.025Z,7.13
2017-03-04T05:16:17.600Z,7.15
2017-03-04T05:16:58.225Z,7.07
2017-03-04T05:17:38.804Z,7.18
2017-03-04T05:18:19.428Z,7.17
2017-03-04T05:19:00.032Z,7.18
2017-03-04T05:19:40.595Z,7.13
2017-03-04T05:20:21.185Z,7.18
2017-03-04T05:21:01.834Z,7.1
2017-03-04T05:21:42.497Z,7.23
2017-03-04T05:22:23.155Z,7.23
2017-03-04T05:23:03.755Z,7.25
2017-03-04T05:23:44.344Z,7.21
2017-03-04T05:24:24.940Z,7.13
2017-03-04T05:25:05.551Z,7.28
2017-03-04T05:25:46.165Z,7.18
2017-03-04T05:26:26.760Z,7.24
2017-03-04T05:27:07.383Z,7.2
2017-03-04T05:27:47.963Z,7.24
2017-03-04T05:28:28.561Z,7.18
2017-03-04T05:29:09.156Z,7.17
2017-03-04T05:29:49.782Z,7.13
2017-03-04T05:30:30.369Z,7.29
2017-03-04T05:31:11.003Z,7.25
2017-03-04T05:31:51.592Z,7.17
2017-03-04T05:32:32.178Z,7.21
2017-03-04T05:33:12.826Z,7.31
2017-03-04T05:33:53.384Z,7.25
2017-03-04T05:34:33.989Z,7.21
2017-03-04T05:35:14.576Z,7.2
2017-03-04T05:35:55.190Z,7.18
2017-03-04T05:36:35.836Z,7.17
2017-03-04T05:37:16.434Z,7.21
2017-03-04T05:37:57.037Z,7.2
2017-03-04T05:38:37.682Z,7.17
2017-03-04T05:39:18.314Z,7.21
2017-03-04T05:39:58.944Z,7.11
2017-03-04T05:40:39.561Z,7.17
2017-03-04T05:41:20.151Z,7.21
2017-03-04T05:42:00.758Z,7.15
2017-03-04T05:42:41.409Z,7.18
2017-03-04T05:43:22.020Z,7.18
2017-03-04T05:44:02.634Z,7.2
2017-03-04T05:44:43.223Z,7.2
2017-03-04T05:45:23.801Z,7.18
2017-03-04T05:46:04.395Z,7.18
2017-03-04T05:46:45.022Z,7.21
2017-03-04T05:47:25.634Z,7.23
2017-03-04T05:48:06.233Z,7.15
2017-03-04T05:48:46.830Z,7.18
2017-03-04T05:49:27.426Z,7.13
2017-03-04T05:50:08.001Z,7.15
2017-03-04T05:50:48.635Z,7.13
2017-03-04T05:51:29.189Z,7.13
2017-03-04T05:52:09.782Z,7.11
2017-03-04T05:52:50.386Z,7.11
2017-03-04T05:53:30.982Z,7.05
2017-03-04T05:54:11.571Z,7.06
2017-03-04T05:54:52.197Z,7.06
2017-03-04T05:55:32.857Z,6.99
2017-03-04T05:56:13.532Z,6.97
2017-03-04T05:56:54.122Z,6.96
2017-03-04T05:57:34.774Z,6.96
2017-03-04T05:58:15.398Z,7.02
2017-03-04T05:58:55.979Z,7.05
2017-03-04T05:59:36.571Z,7.02
2017-03-04T06:00:17.169Z,6.95
2017-03-04T06:00:57.861Z,7.02
2017-03-04T06:01:38.448Z,6.96
2017-03-04T06:02:19.042Z,7
2017-03-04T06:02:59.651Z,6.99
2017-03-04T06:03:40.239Z,7
2017-03-04T06:04:20.828Z,6.96
2017-03-04T06:05:01.408Z,6.93
2017-03-04T06:05:42.027Z,6.97
2017-03-04T06:06:22.610Z,6.97
2017-03-04T06:07:03.255Z,7.03
2017-03-04T06:07:43.848Z,7.05
2017-03-04T06:08:24.496Z,7.11
2017-03-04T06:09:05.134Z,7.02
2017-03-04T06:09:45.674Z,7.07
2017-03-04T06:10:26.267Z,7.13
2017-03-04T06:11:06.872Z,7.05
2017-03-04T06:11:47.466Z,7.1
2017-03-04T06:12:28.063Z,7.14
2017-03-04T06:13:08.682Z,7.13
2017-03-04T06:13:49.271Z,7.1
2017-03-04T06:14:29.884Z,7.15
2017-03-04T06:15:10.469Z,7.1
2017-03-04T06:15:51.096Z,7.11
2017-03-04T06:16:31.695Z,7.13
2017-03-04T06:17:12.308Z,7.13
2017-03-04T06:17:52.911Z,7.11
2017-03-04T06:18:33.480Z,7.14
2017-03-04T06:19:14.097Z,7.17
2017-03-04T06:19:54.694Z,7.05
2017-03-04T06:20:35.271Z,7.14
2017-03-04T06:21:15.918Z,7.21
2017-03-04T06:21:56.505Z,7.17
2017-03-04T06:22:37.101Z,7.18
2017-03-04T06:23:17.674Z,7.14
2017-03-04T06:23:58.306Z,7.18
2017-03-04T06:24:38.917Z,7.15
2017-03-04T06:25:19.524Z,7.18
2017-03-04T06:26:00.118Z,7.13
2017-03-04T06:26:40.727Z,7.15
2017-03-04T06:27:21.321Z,7.17
2017-03-04T06:28:01.948Z,7.15
2017-03-04T06:28:42.520Z,7.2
2017-03-04T06:29:23.095Z,7.13
2017-03-04T06:30:03.722Z,7.13
2017-03-04T06:30:44.349Z,7.17
2017-03-04T06:31:24.916Z,7.13
2017-03-04T06:32:05.559Z,7.07
2017-03-04T06:32:46.189Z,7.06
2017-03-04T06:33:26.826Z,7.18
2017-03-04T06:34:07.433Z,7.15
2017-03-04T06:34:48.042Z,7.18
2017-03-04T06:35:28.666Z,7.2
2017-03-04T06:36:09.256Z,7.2
2017-03-04T06:36:49.905Z,7.25
2017-03-04T06:37:30.513Z,7.18
2017-03-04T06:38:11.272Z,7.17
2017-03-04T06:38:51.865Z,7.18
2017-03-04T06:39:32.523Z,7.21
2017-03-04T06:40:13.200Z,7.18
2017-03-04T06:40:53.987Z,7.17
2017-03-04T06:41:35.238Z,7.23
2017-03-04T06:42:15.962Z,7.15
2017-03-04T06:42:56.559Z,7.29
2017-03-04T06:43:37.212Z,7.31
2017-03-04T06:44:17.843Z,7.25
2017-03-04T06:44:58.501Z,7.25
2017-03-04T06:45:39.111Z,7.23
2017-03-04T06:46:19.706Z,7.24
2017-03-04T06:47:00.338Z,7.17
2017-03-04T06:47:40.959Z,7.2
2017-03-04T06:48:21.577Z,7.13
2017-03-04T06:49:02.221Z,7.23
2017-03-04T06:49:42.868Z,7.32
2017-03-04T06:50:23.446Z,7.24
2017-03-04T06:51:04.208Z,7.35
2017-03-04T06:51:44.850Z,7.24
2017-03-04T06:52:25.436Z,7.33
2017-03-04T06:53:06.041Z,7.29
2017-03-04T06:53:46.626Z,7.24
2017-03-04T06:54:27.257Z,7.21
2017-03-04T06:55:07.832Z,7.17
2017-03-04T06:55:48.430Z,7.35
2017-03-04T06:56:29.034Z,7.25
2017-03-04T06:57:09.742Z,7.23
2017-03-04T06:57:50.376Z,7.18
2017-03-04T06:58:31.000Z,7.28
2017-03-04T06:59:11.634Z,7.29
2017-03-04T06:59:52.241Z,7.24
2017-03-04T07:00:32.891Z,7.28
2017-03-04T07:01:13.514Z,7.23
2017-03-04T07:01:54.110Z,7.31
2017-03-04T07:02:34.724Z,7.24
2017-03-04T07:03:15.347Z,7.32
2017-03-04T07:03:55.948Z,7.29
2017-03-04T07:04:36.589Z,7.32
2017-03-04T07:05:17.234Z,7.35
2017-03-04T07:05:57.907Z,7.36
2017-03-04T07:06:38.492Z,7.38
2017-03-04T07:07:19.106Z,7.38
2017-03-04T07:07:59.765Z,7.47
2017-03-04T07:08:40.452Z,7.38
2017-03-04T07:09:21.072Z,7.38
2017-03-04T07:10:01.699Z,7.4
2017-03-04T07:10:42.359Z,7.42
2017-03-04T07:11:23.008Z,7.42
2017-03-04T07:12:03.632Z,7.43
2017-03-04T07:12:44.249Z,7.42
2017-03-04T07:13:24.859Z,7.36
2017-03-04T07:14:05.478Z,7.45
2017-03-04T07:14:46.119Z,7.43
2017-03-04T07:15:26.791Z,7.5
2017-03-04T07:16:07.485Z,7.45
2017-03-04T07:16:48.635Z,7.39
2017-03-04T07:17:29.250Z,7.51
2017-03-04T07:18:10.052Z,7.39
2017-03-04T07:18:50.695Z,7.48
2017-03-04T07:19:31.317Z,7.51
2017-03-04T07:20:11.956Z,7.51
2017-03-04T07:20:52.549Z,7.47
2017-03-04T07:21:33.139Z,7.54
2017-03-04T07:22:13.720Z,7.48
2017-03-04T07:22:54.316Z,7.61
2017-03-04T07:23:34.924Z,7.61
2017-03-04T07:24:15.505Z,7.58
2017-03-04T07:24:56.116Z,7.56
2017-03-04T07:25:36.717Z,7.67
2017-03-04T07:26:17.332Z,7.6
2017-03-04T07:26:57.946Z,7.63
2017-03-04T07:27:42.112Z,7.66
2017-03-04T07:28:23.308Z,7.72
2017-03-04T07:29:07.550Z,7.72
2017-03-04T07:29:48.151Z,7.8
2017-03-04T07:30:28.762Z,7.72
2017-03-04T07:31:09.376Z,7.69
2017-03-04T07:31:50.305Z,7.72
2017-03-04T07:32:31.463Z,7.75
2017-03-04T07:33:12.046Z,7.77
2017-03-04T07:33:52.835Z,7.77
2017-03-04T07:34:33.521Z,7.75
2017-03-04T07:35:14.228Z,7.73
2017-03-04T07:35:54.810Z,7.73
2017-03-04T07:36:35.379Z,7.73
2017-03-04T07:37:16.019Z,7.69
2017-03-04T07:37:56.638Z,7.83
2017-03-04T07:38:37.241Z,7.83
2017-03-04T07:39:17.850Z,7.87
2017-03-04T07:39:58.445Z,7.8
2017-03-04T07:40:39.143Z,7.87
2017-03-04T07:41:19.837Z,7.9
2017-03-04T07:42:00.393Z,7.95
2017-03-04T07:42:41.049Z,7.9
2017-03-04T07:43:21.659Z,8.05
2017-03-04T07:44:02.316Z,8.01
2017-03-04T07:44:42.923Z,8.16
2017-03-04T07:45:23.542Z,8.16
2017-03-04T07:46:04.211Z,8.1
2017-03-04T07:46:44.786Z,8.12
2017-03-04T07:47:25.497Z,8.13
2017-03-04T07:48:06.187Z,8.2
2017-03-04T07:48:46.749Z,8.18
2017-03-04T07:49:27.350Z,8.26
2017-03-04T07:50:07.997Z,8.34
2017-03-04T07:50:48.577Z,8.33
2017-03-04T07:51:29.194Z,8.41
2017-03-04T07:52:09.853Z,8.36
2017-03-04T07:52:50.450Z,8.34
2017-03-04T07:53:31.049Z,8.3
2017-03-04T07:54:11.638Z,8.37
2017-03-04T07:54:52.251Z,8.34
2017-03-04T07:55:32.848Z,8.52
2017-03-04T07:56:13.486Z,8.52
2017-03-04T07:56:54.070Z,8.63
2017-03-04T07:57:34.732Z,8.74
2017-03-04T07:58:15.368Z,8.81
2017-03-04T07:58:55.965Z,8.78
2017-03-04T07:59:36.588Z,8.88
2017-03-04T08:00:17.173Z,8.92
2017-03-04T08:00:57.766Z,8.94
2017-03-04T08:01:38.363Z,9.02
2017-03-04T08:02:18.945Z,9.06
2017-03-04T08:02:59.607Z,9.06
2017-03-04T08:03:40.291Z,9.11
2017-03-04T08:04:20.833Z,9.19
2017-03-04T08:05:01.432Z,9.22
2017-03-04T08:05:42.040Z,9.18
2017-03-04T08:06:22.625Z,9.22
2017-03-04T08:07:03.202Z,9.21
2017-03-04T08:07:43.829Z,9.36
2017-03-04T08:08:24.433Z,9.39
2017-03-04T08:09:05.055Z,9.47
2017-03-04T08:09:45.630Z,9.47
2017-03-04T08:10:26.230Z,9.55
2017-03-04T08:11:06.832Z,9.61
2017-03-04T08:11:47.435Z,9.66
2017-03-04T08:12:28.078Z,9.72
2017-03-04T08:13:08.734Z,9.74
2017-03-04T08:13:49.376Z,9.84
2017-03-04T08:14:30.034Z,9.94
2017-03-04T08:15:10.612Z,9.95
2017-03-04T08:15:51.209Z,10.09
2017-03-04T08:16:31.808Z,10.16
2017-03-04T08:17:12.405Z,10.2
2017-03-04T08:17:53.013Z,10.33
2017-03-04T08:18:33.613Z,10.4
2017-03-04T08:19:14.222Z,10.49
2017-03-04T08:19:54.816Z,10.46
2017-03-04T08:20:35.429Z,10.51
2017-03-04T08:21:16.073Z,10.63
2017-03-04T08:21:56.684Z,10.69
2017-03-04T08:22:37.275Z,10.71
2017-03-04T08:23:17.880Z,10.72
2017-03-04T08:23:58.495Z,10.78
2017-03-04T08:24:39.100Z,10.84
2017-03-04T08:25:19.703Z,10.89
2017-03-04T08:26:00.353Z,10.9
2017-03-04T08:26:40.975Z,11.05
2017-03-04T08:27:21.592Z,11.05
2017-03-04T08:28:02.263Z,11.18
2017-03-04T08:28:42.926Z,11.3
2017-03-04T08:29:23.593Z,11.35
2017-03-04T08:30:04.207Z,11.37
2017-03-04T08:30:44.879Z,11.45
2017-03-04T08:31:25.506Z,11.54
2017-03-04T08:32:06.132Z,11.59
2017-03-04T08:32:46.719Z,11.57
2017-03-04T08:33:27.312Z,11.66
2017-03-04T08:34:07.968Z,11.77
2017-03-04T08:34:48.572Z,11.68
2017-03-04T08:35:29.177Z,11.78
2017-03-04T08:36:09.788Z,11.78
2017-03-04T08:36:50.345Z,11.95
2017-03-04T08:37:30.986Z,11.86
2017-03-04T08:38:11.580Z,11.88
2017-03-04T08:38:52.198Z,11.87
2017-03-04T08:39:32.797Z,12
2017-03-04T08:40:13.397Z,11.91
2017-03-04T08:40:54.008Z,12.04
2017-03-04T08:41:34.607Z,12
2017-03-04T08:42:15.227Z,12.17
2017-03-04T08:42:55.826Z,12.09
2017-03-04T08:43:36.411Z,12.24
2017-03-04T08:44:16.983Z,12.22
2017-03-04T08:44:57.633Z,12.32
2017-03-04T08:45:38.241Z,12.36
2017-03-04T08:46:18.837Z,12.35
2017-03-04T08:46:59.438Z,12.49
2017-03-04T08:47:40.023Z,12.5
2017-03-04T08:48:20.674Z,12.49
2017-03-04T08:49:01.277Z,12.45
2017-03-04T08:49:41.899Z,12.55
2017-03-04T08:50:22.497Z,12.55
2017-03-04T08:51:03.092Z,12.55
2017-03-04T08:51:43.681Z,12.53
2017-03-04T08:52:24.312Z,12.57
2017-03-04T08:53:05.097Z,12.58
2017-03-04T08:53:45.759Z,12.54
2017-03-04T08:54:26.472Z,12.57
2017-03-04T08:55:07.099Z,12.58
2017-03-04T08:55:47.721Z,12.54
2017-03-04T08:56:29.908Z,12.64
2017-03-04T08:57:15.024Z,12.79
2017-03-04T08:57:55.614Z,12.93
2017-03-04T08:58:36.206Z,12.98
2017-03-04T08:59:16.819Z,13.11
2017-03-04T08:59:57.426Z,13.2
2017-03-04T09:00:38.057Z,13.41
2017-03-04T09:01:18.611Z,13.46
2017-03-04T09:01:59.226Z,13.62
2017-03-04T09:02:39.815Z,13.67
2017-03-04T09:03:20.439Z,13.78